Time;durP1;ratioP1;P1;durP2;ratioP2;P2;SDS_P1;SDS_P2;PMS_P1;PMS_P2;Temp;Humidity;BMP_temperature;BMP_pressure;BME280_temperature;BME280_humidity;BME280_pressure;Samples;Min_cycle;Max_cycle;Signal;HPM_P1;HPM_P2
2021/11/22 00:00:11;;;;;;;;;5.00;3.00;;;;;20.90;39.83;101320.44;5001297;28;51109;-46
2021/11/22 00:02:36;;;;;;;;;6.00;5.00;;;;;20.89;39.88;101321.50;5005846;28;51279;-44
2021/11/22 00:05:02;;;;;;;;;2.00;2.00;;;;;20.87;39.94;101330.00;5004570;28;51071;-48
2021/11/22 00:07:28;;;;;;;;;4.75;3.75;;;;;20.85;39.82;101328.53;5003741;27;51011;-45
2021/11/22 00:09:53;;;;;;;;;4.00;3.00;;;;;20.85;39.94;101331.28;5011405;28;51594;-45
2021/11/22 00:12:18;;;;;;;;;3.00;2.25;;;;;20.83;39.85;101333.38;5004014;28;51019;-46
2021/11/22 00:14:44;;;;;;;;;4.00;2.25;;;;;20.82;40.09;101324.25;4999801;27;51959;-46
2021/11/22 00:17:09;;;;;;;;;5.25;4.25;;;;;20.81;39.89;101333.59;5002878;28;51129;-49
2021/11/22 00:19:35;;;;;;;;;2.25;2.25;;;;;20.80;39.82;101333.81;5006192;27;51296;-45
2021/11/22 00:22:00;;;;;;;;;4.00;2.50;;;;;20.78;39.79;101331.28;5003983;28;51362;-45
2021/11/22 00:24:26;;;;;;;;;3.00;3.00;;;;;20.76;40.07;101327.88;5004459;27;51943;-48
2021/11/22 00:26:51;;;;;;;;;1.50;1.50;;;;;20.75;39.66;101327.03;5007405;28;51243;-44
2021/11/22 00:29:17;;;;;;;;;2.75;2.75;;;;;20.74;39.59;101333.59;5000401;28;51287;-49
2021/11/22 00:31:44;;;;;;;;;1.75;1.75;;;;;20.72;39.52;101330.19;5000238;28;50990;-47
2021/11/22 00:34:10;;;;;;;;;3.00;2.75;;;;;20.71;40.04;101336.75;5006430;28;51141;-49
2021/11/22 00:36:35;;;;;;;;;3.25;3.25;;;;;20.70;39.45;101329.56;5001477;28;51098;-47
2021/11/22 00:39:00;;;;;;;;;4.00;4.00;;;;;20.69;40.05;101329.78;5001599;28;51099;-45
2021/11/22 00:41:26;;;;;;;;;3.00;3.00;;;;;20.68;39.74;101339.94;5000803;28;51140;-44
2021/11/22 00:43:54;;;;;;;;;4.00;3.00;;;;;20.67;39.63;101340.16;4997019;28;52626;-48
2021/11/22 00:46:19;;;;;;;;;4.00;2.50;;;;;20.64;39.74;101341.44;5001494;28;51540;-47
2021/11/22 00:48:45;;;;;;;;;6.75;4.50;;;;;20.65;39.63;101343.13;5002679;28;51104;-44
2021/11/22 00:51:10;;;;;;;;;4.00;4.00;;;;;20.63;39.85;101342.47;4995702;28;51191;-44
2021/11/22 00:53:35;;;;;;;;;5.25;5.00;;;;;20.62;39.99;101349.03;5008668;27;51749;-44
2021/11/22 00:56:01;;;;;;;;;2.25;2.25;;;;;20.61;39.87;101350.09;5001179;27;51150;-44
2021/11/22 00:58:26;;;;;;;;;3.25;3.25;;;;;20.61;39.60;101352.00;4987521;28;51106;-46
2021/11/22 01:00:52;;;;;;;;;2.75;2.75;;;;;20.59;39.66;101352.22;5004876;28;51079;-47
2021/11/22 01:03:17;;;;;;;;;2.00;2.00;;;;;20.58;39.61;101353.28;4998633;28;51225;-47
2021/11/22 01:05:43;;;;;;;;;4.25;3.00;;;;;20.57;39.79;101359.84;5006710;28;51011;-44
2021/11/22 01:08:09;;;;;;;;;5.00;5.00;;;;;20.57;39.66;101359.00;4998609;28;51005;-50
2021/11/22 01:10:37;;;;;;;;;5.75;3.75;;;;;20.55;39.49;101363.88;5001502;28;51313;-47
2021/11/22 01:13:02;;;;;;;;;3.00;3.00;;;;;20.55;39.93;101361.97;4982457;28;52873;-44
2021/11/22 01:15:28;;;;;;;;;4.25;3.25;;;;;20.54;39.55;101360.28;5039618;27;51920;-44
2021/11/22 01:17:54;;;;;;;;;5.00;2.75;;;;;20.52;39.99;101373.38;5005227;28;51695;-46
2021/11/22 01:20:28;;;;;;;;;3.00;3.00;;;;;20.51;39.59;101371.69;5003240;28;51143;-48
2021/11/22 01:22:55;;;;;;;;;3.50;3.50;;;;;20.51;39.84;101379.09;4996519;28;53049;-45
2021/11/22 01:25:21;;;;;;;;;2.00;2.00;;;;;20.50;40.23;101375.50;4996750;28;51203;-48
2021/11/22 01:27:47;;;;;;;;;4.00;2.25;;;;;20.50;40.01;101383.75;4999523;28;51384;-44
2021/11/22 01:30:13;;;;;;;;;4.00;3.75;;;;;20.49;39.59;101381.22;5029068;27;51161;-47
2021/11/22 01:32:41;;;;;;;;;5.25;4.00;;;;;20.47;39.77;101378.69;5003096;28;52156;-49
2021/11/22 01:35:06;;;;;;;;;4.00;3.25;;;;;20.46;39.69;101385.25;4997643;28;51810;-47
2021/11/22 01:37:32;;;;;;;;;2.50;1.75;;;;;20.46;39.54;101382.50;4996571;28;51131;-46
2021/11/22 01:39:57;;;;;;;;;5.25;3.75;;;;;20.45;40.09;101389.06;5002802;28;51169;-47
2021/11/22 01:42:22;;;;;;;;;2.50;2.50;;;;;20.44;39.81;101379.09;5003771;28;51082;-45
2021/11/22 01:44:48;;;;;;;;;3.75;2.75;;;;;20.43;39.83;101388.44;5006161;28;51406;-46
2021/11/22 01:47:14;;;;;;;;;1.50;1.50;;;;;20.41;39.81;101388.56;5003477;27;51197;-45
2021/11/22 01:49:39;;;;;;;;;3.00;3.00;;;;;20.42;39.62;101394.91;5000163;28;51330;-46
2021/11/22 01:52:05;;;;;;;;;1.50;1.50;;;;;20.41;39.96;101390.47;4997619;28;51105;-48
2021/11/22 01:54:31;;;;;;;;;3.50;2.00;;;;;20.41;39.49;101395.97;5007008;28;51398;-46
2021/11/22 01:56:57;;;;;;;;;3.50;2.00;;;;;20.39;40.00;101392.59;5005143;27;51037;-46
2021/11/22 01:59:23;;;;;;;;;3.00;1.75;;;;;20.38;39.99;101394.50;5002175;28;51488;-45
2021/11/22 02:01:48;;;;;;;;;2.00;2.00;;;;;20.37;39.72;101401.06;5000612;28;51694;-48
2021/11/22 02:04:14;;;;;;;;;1.50;1.50;;;;;20.38;40.06;101396.41;5007632;28;51139;-44
2021/11/22 02:06:40;;;;;;;;;3.50;2.00;;;;;20.36;39.53;101402.13;5001975;28;51012;-44
2021/11/22 02:09:06;;;;;;;;;2.00;2.00;;;;;20.35;39.80;101408.69;5005273;27;51262;-46
2021/11/22 02:11:33;;;;;;;;;1.25;1.25;;;;;20.35;39.61;101402.34;4997247;28;51185;-45
2021/11/22 02:13:58;;;;;;;;;3.50;2.00;;;;;20.35;40.09;101405.09;5010257;28;51453;-47
2021/11/22 02:16:24;;;;;;;;;2.25;2.25;;;;;20.34;39.59;101406.16;5004419;27;51098;-46
2021/11/22 02:18:49;;;;;;;;;2.50;2.00;;;;;20.33;39.86;101412.72;5007217;28;51385;-47
2021/11/22 02:21:15;;;;;;;;;2.00;2.00;;;;;20.32;39.49;101405.47;5003208;27;52115;-47
2021/11/22 02:23:42;;;;;;;;;1.25;1.25;;;;;20.30;40.00;101416.69;5010209;27;51175;-44
2021/11/22 02:26:08;;;;;;;;;3.00;1.00;;;;;20.30;39.85;101424.94;5007029;27;51251;-44
2021/11/22 02:28:33;;;;;;;;;2.75;2.00;;;;;20.30;39.70;101418.59;5004346;28;51313;-49
2021/11/22 02:30:58;;;;;;;;;2.00;1.75;;;;;20.29;40.02;101423.25;4999427;28;51099;-46
2021/11/22 02:33:24;;;;;;;;;2.75;2.00;;;;;20.28;39.79;101424.31;5000742;28;51002;-44
2021/11/22 02:36:01;;;;;;;;;2.00;2.00;;;;;20.28;39.71;101424.31;5003624;28;51177;-49
2021/11/22 02:38:30;;;;;;;;;2.00;2.00;;;;;20.27;39.71;101419.03;5002664;28;51185;-46
2021/11/22 02:40:56;;;;;;;;;2.00;2.00;;;;;20.26;39.79;101420.09;5004752;27;51732;-44
2021/11/22 02:43:23;;;;;;;;;2.00;2.00;;;;;20.26;39.66;101422.84;5005875;28;51119;-49
2021/11/22 02:45:49;;;;;;;;;1.75;1.75;;;;;20.24;39.58;101428.56;5004097;28;51081;-46
2021/11/22 02:48:14;;;;;;;;;2.25;2.25;;;;;20.25;39.76;101421.16;5009702;28;51316;-47
2021/11/22 02:50:40;;;;;;;;;1.75;1.00;;;;;20.23;39.73;101418.59;5008927;28;51650;-46
2021/11/22 02:53:05;;;;;;;;;4.00;4.00;;;;;20.23;40.02;101426.84;5003991;28;51054;-47
2021/11/22 02:55:31;;;;;;;;;2.25;2.25;;;;;20.23;39.70;101420.50;5007168;28;51128;-48
2021/11/22 02:57:56;;;;;;;;;3.25;2.25;;;;;20.22;39.93;101427.91;5005887;28;51194;-46
2021/11/22 03:00:28;;;;;;;;;2.75;1.25;;;;;20.22;39.79;101433.41;5010847;28;51870;-48
2021/11/22 03:02:54;;;;;;;;;3.50;3.50;;;;;20.21;39.94;101434.44;5000132;28;51138;-49
2021/11/22 03:05:21;;;;;;;;;1.75;1.75;;;;;20.21;39.94;101439.09;4994646;28;51114;-45
2021/11/22 03:07:49;;;;;;;;;1.50;1.50;;;;;20.19;39.76;101434.66;5011234;27;51327;-46
2021/11/22 03:10:16;;;;;;;;;2.00;2.00;;;;;20.19;39.64;101436.56;5006498;28;52659;-43
2021/11/22 03:12:43;;;;;;;;;2.75;1.75;;;;;20.19;39.83;101447.56;5005314;28;51354;-47
2021/11/22 03:15:10;;;;;;;;;2.75;1.00;;;;;20.18;39.59;101445.88;5003030;27;52062;-45
2021/11/22 03:17:37;;;;;;;;;2.00;2.00;;;;;20.18;39.88;101440.38;5003930;28;51264;-48
2021/11/22 03:20:04;;;;;;;;;1.75;1.00;;;;;20.17;40.05;101445.03;5000654;28;51226;-44
2021/11/22 03:22:30;;;;;;;;;3.00;2.00;;;;;20.16;39.70;101446.06;5000872;28;51328;-45
2021/11/22 03:24:55;;;;;;;;;3.50;2.50;;;;;20.14;39.72;101450.94;5005380;27;51184;-46
2021/11/22 03:27:21;;;;;;;;;2.50;1.00;;;;;20.13;39.57;101449.25;5008325;27;51379;-44
2021/11/22 03:29:46;;;;;;;;;2.00;2.00;;;;;20.13;39.63;101449.25;5006706;28;51764;-44
2021/11/22 03:32:11;;;;;;;;;0.75;0.75;;;;;20.14;39.97;101450.09;5011145;28;51200;-48
2021/11/22 03:34:37;;;;;;;;;2.00;2.00;;;;;20.13;39.97;101459.41;5001550;28;51345;-48
2021/11/22 03:37:04;;;;;;;;;3.00;2.75;;;;;20.12;39.99;101458.56;5005131;28;51424;-44
2021/11/22 03:39:32;;;;;;;;;2.00;2.00;;;;;20.12;39.95;101458.56;5003549;28;51156;-45
2021/11/22 03:42:02;;;;;;;;;1.00;1.00;;;;;20.12;39.57;101466.81;5010123;27;51339;-49
2021/11/22 03:44:28;;;;;;;;;1.75;1.50;;;;;20.11;39.84;101462.38;5013657;28;50999;-45
2021/11/22 03:46:55;;;;;;;;;3.25;1.75;;;;;20.10;40.00;101460.63;5014237;28;50950;-45
2021/11/22 03:49:21;;;;;;;;;4.50;2.25;;;;;20.09;39.85;101467.19;4997970;28;53907;-45
2021/11/22 03:51:47;;;;;;;;;2.00;2.00;;;;;20.09;39.86;101478.19;5012917;28;51206;-45
2021/11/22 03:54:13;;;;;;;;;2.75;2.00;;;;;20.09;39.67;101482.84;5007282;27;51170;-47
2021/11/22 03:56:39;;;;;;;;;2.75;2.00;;;;;20.08;39.93;101483.91;5007482;28;51197;-44
2021/11/22 03:59:06;;;;;;;;;1.00;1.00;;;;;20.07;39.83;101483.06;5005383;28;51890;-44
2021/11/22 04:01:31;;;;;;;;;3.25;2.00;;;;;20.07;39.55;101490.47;5004025;28;51249;-47
2021/11/22 04:03:57;;;;;;;;;3.00;3.00;;;;;20.06;39.87;101483.28;5002716;28;51334;-48
2021/11/22 04:06:22;;;;;;;;;3.75;1.50;;;;;20.06;39.79;101491.53;5004198;28;51364;-47
2021/11/22 04:08:48;;;;;;;;;1.50;1.50;;;;;20.05;39.64;101504.44;5004082;28;51018;-46
2021/11/22 04:11:13;;;;;;;;;3.75;2.00;;;;;20.05;39.66;101501.69;5008947;28;51081;-49
2021/11/22 04:13:39;;;;;;;;;2.00;2.00;;;;;20.04;39.90;101505.47;5005089;27;51697;-45
2021/11/22 04:16:05;;;;;;;;;1.75;1.25;;;;;20.04;39.67;101510.13;5003200;28;51613;-46
2021/11/22 04:18:31;;;;;;;;;1.50;1.50;;;;;20.04;39.79;101515.63;5003194;28;51929;-45
2021/11/22 04:20:56;;;;;;;;;4.00;1.75;;;;;20.03;39.94;101517.53;5005466;27;51447;-44
2021/11/22 04:23:23;;;;;;;;;1.50;1.50;;;;;20.02;39.79;101520.50;5006139;28;51889;-48
2021/11/22 04:25:48;;;;;;;;;1.00;1.00;;;;;20.01;39.90;101508.66;5003504;28;51256;-48
2021/11/22 04:28:14;;;;;;;;;1.00;1.00;;;;;20.02;39.56;101512.25;5008643;28;51696;-45
2021/11/22 04:30:40;;;;;;;;;3.00;2.00;;;;;20.01;39.79;101527.00;5005475;27;51143;-45
2021/11/22 04:33:06;;;;;;;;;3.00;3.00;;;;;20.00;39.79;101528.91;5009349;28;51218;-46
2021/11/22 04:35:31;;;;;;;;;0.00;0.00;;;;;20.00;39.71;101536.31;5005845;28;51078;-44
2021/11/22 04:37:57;;;;;;;;;2.25;1.75;;;;;19.99;39.97;101529.13;4998471;28;51163;-48
2021/11/22 04:40:23;;;;;;;;;4.00;1.50;;;;;19.98;39.89;101538.44;5007700;27;51037;-50
2021/11/22 04:42:49;;;;;;;;;3.00;1.25;;;;;19.99;39.90;101537.38;5005620;27;51154;-48
2021/11/22 04:45:16;;;;;;;;;1.00;1.00;;;;;19.97;40.02;101540.34;5002857;28;51105;-45
2021/11/22 04:47:43;;;;;;;;;4.25;3.25;;;;;19.96;40.08;101546.88;5005713;28;51854;-46
2021/11/22 04:50:08;;;;;;;;;3.25;2.00;;;;;19.97;39.65;101554.09;5005201;27;51230;-44
2021/11/22 04:52:35;;;;;;;;;1.25;1.00;;;;;19.96;39.88;101549.63;5011355;27;51160;-44
2021/11/22 04:55:00;;;;;;;;;3.00;2.25;;;;;19.95;39.83;101552.59;5008401;28;51272;-49
2021/11/22 04:57:26;;;;;;;;;2.00;2.00;;;;;19.93;40.06;101555.56;5006849;28;51826;-47
2021/11/22 04:59:51;;;;;;;;;2.00;2.00;;;;;19.93;39.72;101555.56;5002863;27;51126;-46
2021/11/22 05:02:17;;;;;;;;;1.75;1.75;;;;;19.93;39.95;101561.06;5008792;28;51201;-46
2021/11/22 05:04:42;;;;;;;;;2.00;2.00;;;;;19.94;39.85;101560.00;5007738;27;51241;-48
2021/11/22 05:07:08;;;;;;;;;1.00;1.00;;;;;19.92;39.81;101562.09;5006182;28;50959;-47
2021/11/22 05:09:34;;;;;;;;;3.00;1.25;;;;;19.92;39.74;101566.75;4996262;28;51266;-47
2021/11/22 05:11:59;;;;;;;;;1.75;1.75;;;;;19.91;39.73;101573.31;5007349;28;50949;-47
2021/11/22 05:14:24;;;;;;;;;4.75;3.00;;;;;19.89;39.56;101566.09;5004432;28;51304;-45
2021/11/22 05:16:50;;;;;;;;;2.50;1.50;;;;;19.89;39.67;101577.09;5008378;28;51779;-44
2021/11/22 05:19:16;;;;;;;;;2.25;1.50;;;;;19.89;40.18;101584.47;5005170;28;51305;-45
2021/11/22 05:21:42;;;;;;;;;2.00;2.00;;;;;19.89;39.68;101574.34;5003256;28;51426;-49
2021/11/22 05:24:09;;;;;;;;;3.00;2.00;;;;;19.88;39.65;101586.38;5005457;28;51680;-49
2021/11/22 05:26:34;;;;;;;;;2.25;2.00;;;;;19.88;39.81;101582.78;5010531;28;51999;-48
2021/11/22 05:29:01;;;;;;;;;2.75;2.00;;;;;19.87;39.72;101581.09;5010291;27;51217;-48
2021/11/22 05:31:26;;;;;;;;;2.75;2.75;;;;;19.87;40.05;101592.94;5002004;28;51214;-46
2021/11/22 05:33:52;;;;;;;;;2.50;2.00;;;;;19.86;39.90;101596.75;5003496;28;50895;-45
2021/11/22 05:36:18;;;;;;;;;1.75;1.75;;;;;19.85;39.44;101599.69;5003377;27;50897;-49
2021/11/22 05:38:44;;;;;;;;;3.25;2.00;;;;;19.85;39.71;101597.78;5005328;28;51344;-49
2021/11/22 05:41:10;;;;;;;;;1.75;1.75;;;;;19.84;39.88;101595.25;5005608;28;51219;-45
2021/11/22 05:43:36;;;;;;;;;2.75;2.75;;;;;19.84;39.89;101598.84;5005471;27;50911;-48
2021/11/22 05:46:03;;;;;;;;;2.00;2.00;;;;;19.84;40.01;101595.25;5011562;28;51693;-46
2021/11/22 05:48:28;;;;;;;;;2.00;1.50;;;;;19.82;39.79;101614.69;5001228;28;51143;-46
2021/11/22 05:50:55;;;;;;;;;2.75;2.75;;;;;19.81;39.89;101609.41;5004114;28;51318;-49
2021/11/22 05:53:21;;;;;;;;;3.50;1.75;;;;;19.81;40.04;101607.50;5011993;28;51118;-48
2021/11/22 05:55:51;;;;;;;;;1.00;1.00;;;;;19.80;40.22;101608.56;5010847;28;51903;-46
2021/11/22 05:58:17;;;;;;;;;2.00;2.00;;;;;19.79;39.71;101612.31;5009387;28;51140;-48
2021/11/22 06:00:43;;;;;;;;;3.00;2.00;;;;;19.79;40.02;101615.06;5011224;28;51283;-47
2021/11/22 06:03:09;;;;;;;;;0.75;0.75;;;;;19.79;39.69;101619.72;5008246;27;51079;-45
2021/11/22 06:05:35;;;;;;;;;3.00;3.00;;;;;19.79;40.18;101615.06;5002108;28;52087;-45
2021/11/22 06:08:01;;;;;;;;;1.50;1.50;;;;;19.78;39.92;101631.78;5001642;28;51148;-46
2021/11/22 06:10:26;;;;;;;;;3.00;1.50;;;;;19.78;39.78;101631.78;5010762;28;51180;-52
2021/11/22 06:12:52;;;;;;;;;5.00;4.75;;;;;19.77;39.35;101630.91;5006829;28;51258;-51
2021/11/22 06:15:18;;;;;;;;;8.75;8.00;;;;;19.75;38.57;101645.91;5002981;27;51051;-51
2021/11/22 06:17:43;;;;;;;;;7.00;7.00;;;;;19.72;38.27;101655.41;5001990;28;51225;-51
2021/11/22 06:20:10;;;;;;;;;12.00;8.50;;;;;19.69;37.60;101658.53;5001316;28;51144;-51
2021/11/22 06:22:35;;;;;;;;;9.50;9.50;;;;;19.64;37.38;101651.94;4999762;27;51370;-49
2021/11/22 06:25:01;;;;;;;;;9.00;9.00;;;;;19.60;37.08;101657.00;5001263;28;51798;-51
2021/11/22 06:27:27;;;;;;;;;10.00;9.50;;;;;19.54;37.02;101672.34;5015651;28;51033;-51
2021/11/22 06:29:53;;;;;;;;;13.00;11.50;;;;;19.48;37.03;101667.63;5007782;28;51092;-51
2021/11/22 06:32:18;;;;;;;;;11.00;9.25;;;;;19.44;36.96;101674.56;5006987;27;51271;-53
2021/11/22 06:34:44;;;;;;;;;10.25;10.25;;;;;19.40;36.52;101673.25;5020277;27;51436;-50
2021/11/22 06:37:10;;;;;;;;;11.00;9.25;;;;;19.36;36.84;101666.44;4985997;27;51157;-47
2021/11/22 06:39:37;;;;;;;;;8.75;8.75;;;;;19.34;36.57;101676.78;5008485;27;51253;-51
2021/11/22 06:42:03;;;;;;;;;12.25;10.00;;;;;19.38;36.52;101675.31;5005606;28;51085;-50
2021/11/22 06:44:29;;;;;;;;;8.25;7.50;;;;;19.46;36.59;101685.34;5010542;27;51196;-51
2021/11/22 06:46:54;;;;;;;;;8.00;6.75;;;;;19.55;36.75;101686.94;4999373;28;51083;-51
2021/11/22 06:49:21;;;;;;;;;5.75;5.25;;;;;19.65;37.01;101694.88;5007709;27;51383;-53
2021/11/22 06:51:48;;;;;;;;;7.50;6.25;;;;;19.74;37.12;101697.31;5004827;28;51199;-52
2021/11/22 06:54:14;;;;;;;;;6.75;5.50;;;;;19.85;36.84;101699.53;5036342;27;51456;-52
2021/11/22 06:56:39;;;;;;;;;3.25;3.25;;;;;19.94;37.21;101708.50;5001807;28;51287;-51
2021/11/22 06:59:04;;;;;;;;;6.25;5.00;;;;;20.02;37.61;101711.09;4996456;28;51083;-53
2021/11/22 07:01:30;;;;;;;;;3.00;3.00;;;;;20.13;37.28;101716.06;4999445;28;51136;-53
2021/11/22 07:03:56;;;;;;;;;3.25;3.25;;;;;20.22;37.45;101718.66;5001116;28;51150;-52
2021/11/22 07:06:21;;;;;;;;;4.50;3.50;;;;;20.30;37.77;101711.09;5002268;28;51262;-52
2021/11/22 07:08:46;;;;;;;;;3.00;3.00;;;;;20.39;37.27;101733.81;5001834;27;51246;-52
2021/11/22 07:11:12;;;;;;;;;4.75;4.00;;;;;20.46;37.82;101723.75;5021117;27;51104;-52
2021/11/22 07:13:38;;;;;;;;;4.25;3.00;;;;;20.55;37.36;101721.69;5051704;27;51682;-52
2021/11/22 07:16:04;;;;;;;;;3.00;3.00;;;;;20.63;37.54;101727.00;5011272;28;51160;-50
2021/11/22 07:18:30;;;;;;;;;4.00;2.50;;;;;20.69;37.74;101729.81;5004775;27;51251;-52
2021/11/22 07:20:56;;;;;;;;;4.25;3.25;;;;;20.75;37.61;101737.28;5003027;27;51067;-50
2021/11/22 07:23:22;;;;;;;;;3.25;3.25;;;;;20.84;37.35;101734.34;5000666;27;51945;-52
2021/11/22 07:25:50;;;;;;;;;4.00;3.75;;;;;20.90;37.71;101744.56;5005580;27;51153;-53
2021/11/22 07:28:16;;;;;;;;;6.00;4.00;;;;;20.94;38.02;101743.94;5003757;28;51187;-51
2021/11/22 07:30:42;;;;;;;;;2.00;2.00;;;;;20.99;37.99;101746.09;5005197;27;51165;-51
2021/11/22 07:33:08;;;;;;;;;2.00;2.00;;;;;20.98;38.50;101755.41;5008150;27;52019;-52
2021/11/22 07:35:34;;;;;;;;;3.50;3.50;;;;;20.97;38.44;101757.31;4998898;28;51447;-51
2021/11/22 07:37:59;;;;;;;;;4.25;3.25;;;;;20.95;38.40;101767.69;4999014;28;51158;-51
2021/11/22 07:40:25;;;;;;;;;5.25;3.00;;;;;20.96;38.63;101765.78;5001083;27;51295;-50
2021/11/22 07:42:52;;;;;;;;;2.25;2.25;;;;;21.02;38.33;101779.59;4994054;28;52551;-51
2021/11/22 07:45:18;;;;;;;;;3.75;3.00;;;;;21.09;38.35;101782.38;5033942;27;51285;-47
2021/11/22 07:47:43;;;;;;;;;2.50;2.00;;;;;21.14;38.38;101782.59;5008859;28;51115;-50
2021/11/22 07:50:09;;;;;;;;;6.00;4.00;;;;;21.18;38.22;101786.69;5005278;28;51273;-50
2021/11/22 07:52:35;;;;;;;;;2.50;2.00;;;;;21.19;37.90;101795.78;5010662;28;51032;-48
2021/11/22 07:55:00;;;;;;;;;3.75;2.75;;;;;21.18;38.01;101794.94;5014112;27;51177;-50
2021/11/22 07:57:28;;;;;;;;;4.00;4.00;;;;;21.15;37.91;101802.75;5011046;27;51067;-51
2021/11/22 07:59:53;;;;;;;;;2.75;2.75;;;;;21.10;38.48;101811.63;5009463;28;51440;-51
2021/11/22 08:02:18;;;;;;;;;3.00;2.50;;;;;21.08;38.39;101810.13;4998071;28;51858;-48
2021/11/22 08:04:44;;;;;;;;;3.00;3.00;;;;;21.03;37.79;101807.97;4999219;28;51155;-50
2021/11/22 08:07:15;;;;;;;;;4.25;3.75;;;;;20.98;37.98;101811.34;5002155;28;51249;-51
2021/11/22 08:10:25;;;;;;;;;5.00;4.50;;;;;20.95;37.56;101819.19;5013462;28;51094;-50
2021/11/22 08:12:31;;;;;;;;;4.50;4.50;;;;;20.90;37.42;101819.78;5000240;28;51802;-47
2021/11/22 08:14:59;;;;;;;;;3.25;2.25;;;;;20.88;37.97;101821.03;4994911;27;51324;-46
2021/11/22 08:17:26;;;;;;;;;5.00;4.00;;;;;20.83;38.15;101816.09;4995365;28;51190;-47
2021/11/22 08:19:52;;;;;;;;;4.25;4.25;;;;;20.80;38.04;101824.78;4994997;28;51183;-52
2021/11/22 08:22:22;;;;;;;;;4.25;3.00;;;;;20.77;37.97;101824.34;4999636;28;51037;-51
2021/11/22 08:24:52;;;;;;;;;3.75;3.00;;;;;20.73;38.15;101821.97;5014207;27;51403;-49
2021/11/22 08:27:22;;;;;;;;;4.00;3.50;;;;;20.69;37.93;101826.19;5027069;28;50989;-52
2021/11/22 08:29:48;;;;;;;;;2.75;2.75;;;;;20.67;37.82;101827.44;5034412;28;51131;-52
2021/11/22 08:32:14;;;;;;;;;4.00;2.75;;;;;20.63;37.66;101824.22;4996607;28;51074;-52
2021/11/22 08:34:40;;;;;;;;;4.75;3.00;;;;;20.60;37.71;101832.88;4994928;28;51018;-46
2021/11/22 08:37:05;;;;;;;;;3.25;3.25;;;;;20.57;37.96;101830.53;4995623;28;51073;-50
2021/11/22 08:39:30;;;;;;;;;4.50;4.00;;;;;20.55;37.84;101823.53;4995003;27;51227;-54
2021/11/22 08:41:56;;;;;;;;;4.75;3.50;;;;;20.52;38.03;101835.78;4997013;28;51912;-49
2021/11/22 08:44:21;;;;;;;;;4.00;4.00;;;;;20.50;38.20;101840.63;5014696;27;51063;-52
2021/11/22 08:46:47;;;;;;;;;3.75;3.00;;;;;20.46;38.06;101834.69;5014587;27;51468;-51
2021/11/22 08:49:13;;;;;;;;;1.75;0.75;;;;;20.45;38.09;101843.16;5014716;27;51254;-52
2021/11/22 08:51:40;;;;;;;;;3.00;3.00;;;;;20.42;38.09;101840.72;5013845;27;51334;-46
2021/11/22 08:54:05;;;;;;;;;3.00;3.00;;;;;20.39;38.08;101852.16;5012764;28;50963;-49
2021/11/22 08:56:31;;;;;;;;;4.00;3.00;;;;;20.38;38.28;101859.56;5007346;27;51221;-49
2021/11/22 08:58:56;;;;;;;;;3.75;2.25;;;;;20.35;38.45;101859.09;5014327;27;50936;-51
2021/11/22 09:01:23;;;;;;;;;2.50;2.00;;;;;20.33;38.21;101862.06;5012888;28;51629;-52
2021/11/22 09:03:48;;;;;;;;;4.25;4.25;;;;;20.32;38.27;101867.72;5013988;27;51399;-53
2021/11/22 09:06:13;;;;;;;;;3.00;3.00;;;;;20.31;38.36;101866.03;5001395;28;51160;-52
2021/11/22 09:08:39;;;;;;;;;3.75;2.25;;;;;20.30;38.47;101878.09;4994892;28;51092;-51
2021/11/22 09:11:05;;;;;;;;;2.00;2.00;;;;;20.28;38.26;101860.94;4994396;27;52134;-51
2021/11/22 09:13:30;;;;;;;;;4.50;3.00;;;;;20.27;38.06;101875.75;4994600;28;51092;-50
2021/11/22 09:15:55;;;;;;;;;2.50;2.00;;;;;20.26;38.32;101882.28;4995418;28;51061;-53
2021/11/22 09:18:21;;;;;;;;;4.00;2.00;;;;;20.24;38.25;101879.75;4994344;28;51356;-52
2021/11/22 09:20:47;;;;;;;;;3.00;2.25;;;;;20.22;38.49;101880.97;4992728;28;51836;-50
2021/11/22 09:23:12;;;;;;;;;2.50;2.50;;;;;20.22;38.65;101886.47;4994829;28;51315;-50
2021/11/22 09:25:38;;;;;;;;;2.50;2.50;;;;;20.21;38.34;101898.53;5000257;28;51180;-53
2021/11/22 09:28:04;;;;;;;;;5.00;4.75;;;;;20.19;37.60;101898.72;5006896;27;51560;-48
2021/11/22 09:30:30;;;;;;;;;8.50;6.75;;;;;19.97;35.92;101900.59;5003722;27;52791;-53
2021/11/22 09:32:55;;;;;;;;;6.00;4.50;;;;;19.70;35.38;101913.19;5006479;28;51153;-54
2021/11/22 09:35:25;;;;;;;;;5.50;5.00;;;;;19.44;34.94;101899.88;5008538;28;51130;-53
2021/11/22 09:37:51;;;;;;;;;7.00;7.00;;;;;19.18;35.35;101914.09;5006103;28;51123;-48
2021/11/22 09:40:16;;;;;;;;;8.50;7.00;;;;;18.92;34.97;101920.00;4998386;28;52084;-49
2021/11/22 09:42:41;;;;;;;;;7.25;6.25;;;;;18.64;34.96;101918.84;4993345;28;51233;-53
2021/11/22 09:45:10;;;;;;;;;8.50;8.50;;;;;18.39;35.15;101926.41;5004628;27;51307;-50
2021/11/22 09:47:36;;;;;;;;;8.00;8.00;;;;;18.19;35.56;101920.56;5064184;27;51695;-57
2021/11/22 09:50:03;;;;;;;;;6.25;6.00;;;;;18.00;35.21;101931.97;5003373;28;51868;-49
2021/11/22 09:52:29;;;;;;;;;6.75;5.75;;;;;17.80;35.74;101939.78;5009770;27;51322;-52
2021/11/22 09:54:55;;;;;;;;;7.00;7.00;;;;;17.65;35.85;101955.22;5010702;27;51089;-51
2021/11/22 09:57:20;;;;;;;;;8.25;7.00;;;;;17.50;35.84;101945.00;5005378;28;51403;-53
2021/11/22 09:59:46;;;;;;;;;5.75;5.75;;;;;17.39;36.03;101939.03;5006428;28;52594;-52
2021/11/22 10:02:11;;;;;;;;;7.25;6.00;;;;;17.38;36.42;101937.31;5003475;28;51143;-55
2021/11/22 10:04:37;;;;;;;;;6.25;5.00;;;;;17.47;36.33;101945.34;5008886;27;51440;-54
2021/11/22 10:07:06;;;;;;;;;5.00;3.00;;;;;17.65;36.48;101941.53;5007869;27;51365;-54
2021/11/22 10:09:32;;;;;;;;;5.50;3.75;;;;;17.83;36.55;101943.03;4999072;27;51277;-51
2021/11/22 10:12:04;;;;;;;;;4.00;4.00;;;;;18.03;36.77;101948.06;4999631;27;52394;-50
2021/11/22 10:14:35;;;;;;;;;3.00;3.00;;;;;18.23;36.54;101943.81;4996410;27;51267;-54
2021/11/22 10:17:01;;;;;;;;;4.00;4.00;;;;;18.42;36.68;101953.47;4996178;27;51125;-52
2021/11/22 10:19:26;;;;;;;;;3.00;3.00;;;;;18.61;36.74;101958.50;4999234;27;51904;-55
2021/11/22 10:21:52;;;;;;;;;2.00;2.00;;;;;18.78;36.42;101964.75;5005452;27;51344;-55
2021/11/22 10:24:18;;;;;;;;;3.00;2.00;;;;;18.95;36.76;101955.31;4999083;27;51399;-52
2021/11/22 10:26:46;;;;;;;;;2.00;2.00;;;;;19.10;36.59;101966.34;4999971;27;51808;-52
2021/11/22 10:29:26;;;;;;;;;2.00;2.00;;;;;19.27;36.97;101962.38;5000390;27;52044;-53
2021/11/22 10:31:57;;;;;;;;;3.50;2.50;;;;;19.42;36.28;101954.19;4995945;27;51170;-54
2021/11/22 10:34:23;;;;;;;;;1.50;1.50;;;;;19.57;36.50;101960.53;4997971;27;51222;-53
2021/11/22 10:36:57;;;;;;;;;3.75;2.25;;;;;19.73;36.26;101964.16;4998934;27;52663;-50
2021/11/22 10:39:22;;;;;;;;;2.00;2.00;;;;;19.85;36.16;101971.72;4997721;27;52574;-54
2021/11/22 10:41:48;;;;;;;;;2.00;2.00;;;;;19.96;36.36;101961.28;4996057;27;51154;-53
2021/11/22 10:44:15;;;;;;;;;2.50;2.00;;;;;20.07;36.47;101972.66;5000801;27;51326;-53
2021/11/22 10:46:48;;;;;;;;;2.00;2.00;;;;;20.19;36.17;101971.09;4999637;28;51448;-50
2021/11/22 10:49:44;;;;;;;;;2.00;2.00;;;;;20.32;36.06;101975.06;5000020;27;52822;-55
2021/11/22 10:52:13;;;;;;;;;0.50;0.50;;;;;20.43;36.34;101964.44;4998113;27;51839;-51
2021/11/22 10:54:59;;;;;;;;;1.50;1.50;;;;;20.55;36.38;101978.53;4998244;27;51126;-56
2021/11/22 10:57:38;;;;;;;;;2.75;1.50;;;;;20.65;35.81;101987.34;4997367;27;51358;-53
2021/11/22 11:00:28;;;;;;;;;3.50;3.50;;;;;20.77;35.90;101970.28;4996972;27;52087;-53
2021/11/22 11:02:55;;;;;;;;;1.00;1.00;;;;;20.86;35.95;101983.72;4997694;27;51042;-53
2021/11/22 11:05:28;;;;;;;;;1.25;1.25;;;;;20.94;35.92;101985.47;4997148;27;52665;-52
2021/11/22 11:08:03;;;;;;;;;0.50;0.50;;;;;21.03;35.88;101987.88;4998576;27;51924;-52
2021/11/22 11:10:29;;;;;;;;;1.75;1.75;;;;;21.14;35.46;101985.66;5005336;28;51776;-54
2021/11/22 11:12:55;;;;;;;;;3.00;2.00;;;;;21.18;35.22;101979.56;5005252;27;52391;-54
2021/11/22 11:15:22;;;;;;;;;2.00;2.00;;;;;21.21;35.60;101978.28;4998313;27;51347;-54
2021/11/22 11:17:48;;;;;;;;;2.00;2.00;;;;;21.21;35.71;101981.03;5009470;28;51407;-55
2021/11/22 11:20:17;;;;;;;;;0.00;0.00;;;;;21.20;35.24;101980.19;5010171;28;51277;-54